Time;durP1;ratioP1;P1;durP2;ratioP2;P2;SDS_P1;SDS_P2;PMS_P1;PMS_P2;Temp;Humidity;BMP_temperature;BMP_pressure;BME280_temperature;BME280_humidity;BME280_pressure;Samples;Min_cycle;Max_cycle;Signal;HPM_P1;HPM_P2
2021/08/06 00:01:29;;;;;;;9.70;8.90;;;;;;;15.84;100.00;99887.59;4954250;28;20233;-78
2021/08/06 00:03:55;;;;;;;9.90;9.00;;;;;;;15.88;100.00;99897.59;4936834;29;20278;-77
2021/08/06 00:06:27;;;;;;;10.83;9.73;;;;;;;15.81;100.00;99902.75;4936764;29;20219;-77
2021/08/06 00:09:00;;;;;;;10.33;9.20;;;;;;;15.80;100.00;99898.44;4968635;28;20592;-77
2021/08/06 00:11:29;;;;;;;10.80;9.83;;;;;;;15.85;100.00;99913.88;4953319;28;20603;-77
2021/08/06 00:13:59;;;;;;;10.60;9.60;;;;;;;15.90;100.00;99900.03;4921519;29;20191;-78
2021/08/06 00:16:25;;;;;;;10.70;9.70;;;;;;;15.93;100.00;99897.44;4937952;29;20225;-77
2021/08/06 00:18:51;;;;;;;10.57;9.63;;;;;;;15.88;100.00;99892.13;4937765;29;20207;-77
2021/08/06 00:21:19;;;;;;;10.30;9.30;;;;;;;15.86;100.00;99899.88;4952986;28;20305;-77
2021/08/06 00:23:45;;;;;;;10.87;9.80;;;;;;;15.75;100.00;99896.97;4968153;28;20819;-78
2021/08/06 00:26:13;;;;;;;11.00;10.00;;;;;;;15.75;100.00;99886.84;4920417;29;20651;-76
2021/08/06 00:28:42;;;;;;;10.37;9.43;;;;;;;15.73;100.00;99893.75;4967949;28;20217;-77
2021/08/06 00:31:10;;;;;;;11.40;10.30;;;;;;;15.69;100.00;99892.78;4950492;28;20229;-77
2021/08/06 00:33:38;;;;;;;11.77;10.67;;;;;;;15.68;100.00;99883.78;4961235;28;20324;-77
2021/08/06 00:36:07;;;;;;;12.43;11.23;;;;;;;15.66;100.00;99888.78;4963886;28;20303;-77
2021/08/06 00:38:32;;;;;;;12.20;11.20;;;;;;;15.54;100.00;99880.41;4967328;28;20207;-77
2021/08/06 00:40:59;;;;;;;12.20;11.10;;;;;;;15.59;100.00;99887.66;4920050;29;20241;-77
2021/08/06 00:43:26;;;;;;;13.37;12.17;;;;;;;15.57;100.00;99884.44;4961853;28;20558;-76
2021/08/06 00:46:01;;;;;;;13.87;12.63;;;;;;;15.65;100.00;99883.63;4967050;28;20242;-77
2021/08/06 00:48:29;;;;;;;13.87;12.57;;;;;;;15.66;100.00;99882.47;4951780;28;20222;-77
2021/08/06 00:50:58;;;;;;;14.80;13.30;;;;;;;15.68;100.00;99880.25;4952663;28;20219;-78
2021/08/06 00:53:27;;;;;;;14.67;13.27;;;;;;;15.69;100.00;99879.09;4961065;28;20179;-78
2021/08/06 00:55:57;;;;;;;14.63;13.33;;;;;;;15.76;100.00;99879.44;4952067;29;20231;-77
2021/08/06 00:58:22;;;;;;;15.10;13.60;;;;;;;15.73;100.00;99871.84;4943567;29;20207;-77
2021/08/06 01:00:48;;;;;;;14.63;13.23;;;;;;;15.74;100.00;99874.25;4951931;29;20646;-78
2021/08/06 01:04:21;;;;;;;14.13;12.90;;;;;;;15.81;100.00;99874.59;4967838;28;20190;-77
2021/08/06 01:06:53;;;;;;;14.53;13.30;;;;;;;15.73;100.00;99874.59;4918745;28;20214;-77
2021/08/06 01:09:42;;;;;;;13.43;12.23;;;;;;;15.67;100.00;99886.84;4950514;29;20257;-77
2021/08/06 01:12:16;;;;;;;14.40;13.03;;;;;;;15.78;100.00;99875.22;4935534;29;20230;-77
2021/08/06 01:14:48;;;;;;;13.63;12.43;;;;;;;15.77;100.00;99884.59;4935108;29;20193;-76
2021/08/06 01:17:17;;;;;;;13.83;12.63;;;;;;;15.70;100.00;99880.72;4905203;29;20705;-77
2021/08/06 01:20:13;;;;;;;14.07;12.70;;;;;;;15.74;100.00;99874.25;4954321;28;20598;-77
2021/08/06 01:22:41;;;;;;;13.97;12.57;;;;;;;15.74;100.00;99868.00;4963967;28;20222;-77
2021/08/06 01:25:16;;;;;;;14.43;13.13;;;;;;;15.74;100.00;99870.72;4938425;28;20190;-77
2021/08/06 01:27:55;;;;;;;13.93;12.67;;;;;;;15.75;100.00;99869.59;4954424;29;20222;-76
2021/08/06 01:30:24;;;;;;;15.10;13.70;;;;;;;15.73;100.00;99885.53;4939094;28;20219;-78
2021/08/06 01:32:56;;;;;;;14.60;13.03;;;;;;;15.75;100.00;99881.38;4972061;28;20769;-77
2021/08/06 01:35:22;;;;;;;14.43;13.13;;;;;;;15.72;100.00;99876.53;4965068;28;20254;-77
2021/08/06 01:37:48;;;;;;;14.53;13.13;;;;;;;15.56;100.00;99878.16;4964749;29;20183;-77
2021/08/06 01:40:14;;;;;;;14.87;13.57;;;;;;;15.59;100.00;99873.97;4965742;28;20211;-76
2021/08/06 01:43:26;;;;;;;13.93;12.73;;;;;;;15.57;100.00;99873.50;4939281;29;20594;-77
2021/08/06 01:46:06;;;;;;;14.50;13.00;;;;;;;15.53;100.00;99880.72;4948613;29;20222;-78
2021/08/06 01:48:36;;;;;;;14.37;12.97;;;;;;;15.54;100.00;99879.59;4972275;28;20210;-78
2021/08/06 01:51:06;;;;;;;14.93;13.53;;;;;;;15.50;100.00;99884.13;4948787;28;20573;-77
2021/08/06 01:53:46;;;;;;;14.30;13.00;;;;;;;15.49;100.00;99882.50;4959958;28;20191;-77
2021/08/06 01:56:18;;;;;;;14.50;13.30;;;;;;;15.49;100.00;99887.97;4956818;29;20226;-78
2021/08/06 01:58:49;;;;;;;14.93;13.67;;;;;;;15.51;100.00;99880.25;4954870;28;20235;-77
2021/08/06 02:01:15;;;;;;;15.57;14.17;;;;;;;15.45;100.00;99884.28;4939020;28;20219;-77
2021/08/06 02:03:53;;;;;;;15.83;14.33;;;;;;;15.50;100.00;99884.13;4943006;29;20270;-76
2021/08/06 02:06:27;;;;;;;15.73;14.23;;;;;;;15.52;100.00;99871.72;4958417;28;20223;-77
2021/08/06 02:09:01;;;;;;;15.97;14.47;;;;;;;15.53;100.00;99880.72;4944095;29;20210;-78
2021/08/06 02:11:32;;;;;;;15.07;13.77;;;;;;;15.39;100.00;99880.91;4942288;29;20262;-77
2021/08/06 02:14:03;;;;;;;14.73;13.33;;;;;;;15.35;100.00;99887.34;4957353;29;20202;-77
2021/08/06 02:16:31;;;;;;;15.23;13.93;;;;;;;15.40;100.00;99878.94;4939403;28;20262;-77
2021/08/06 02:18:59;;;;;;;14.97;13.67;;;;;;;15.43;100.00;99881.06;4939023;29;20278;-77
2021/08/06 02:21:31;;;;;;;15.77;14.37;;;;;;;15.39;100.00;99883.63;4938092;28;20251;-75
2021/08/06 02:24:01;;;;;;;15.03;13.63;;;;;;;15.35;100.00;99876.41;4953901;29;20214;-77
2021/08/06 02:26:32;;;;;;;16.20;14.70;;;;;;;15.44;100.00;99874.47;4952328;28;20305;-77
2021/08/06 02:29:03;;;;;;;15.50;14.00;;;;;;;15.37;100.00;99876.88;4955465;28;20213;-78
2021/08/06 02:31:34;;;;;;;15.83;14.33;;;;;;;15.35;100.00;99870.94;4955000;28;20666;-77
2021/08/06 02:34:03;;;;;;;15.43;13.93;;;;;;;15.39;100.00;99866.41;4970548;28;20503;-78
2021/08/06 02:36:29;;;;;;;15.17;13.73;;;;;;;15.35;100.00;99865.47;4954353;28;20226;-78
2021/08/06 02:38:57;;;;;;;16.60;14.90;;;;;;;15.28;100.00;99856.91;4953089;29;20289;-77
2021/08/06 02:41:23;;;;;;;15.60;14.30;;;;;;;15.37;100.00;99851.44;4953562;28;20234;-77
2021/08/06 02:43:48;;;;;;;16.50;14.93;;;;;;;15.21;100.00;99847.59;4938205;29;20195;-77
2021/08/06 02:46:20;;;;;;;17.07;15.37;;;;;;;15.31;100.00;99853.53;4955444;28;20224;-77
2021/08/06 02:48:48;;;;;;;16.03;14.53;;;;;;;15.23;100.00;99845.31;4954982;28;20213;-78
2021/08/06 02:51:19;;;;;;;16.03;14.47;;;;;;;15.32;100.00;99844.19;4965621;28;20223;-78
2021/08/06 02:53:47;;;;;;;16.73;15.17;;;;;;;15.22;100.00;99833.59;4935769;29;20194;-78
2021/08/06 02:56:13;;;;;;;16.03;14.60;;;;;;;15.30;100.00;99843.72;4920104;29;20227;-78
2021/08/06 02:58:45;;;;;;;16.67;14.87;;;;;;;15.23;100.00;99846.13;4950582;29;20212;-77
2021/08/06 03:01:13;;;;;;;16.23;14.73;;;;;;;15.23;100.00;99848.84;4952665;28;20623;-77
2021/08/06 03:03:40;;;;;;;17.10;15.43;;;;;;;15.12;100.00;99853.00;4954004;28;20197;-78
2021/08/06 03:06:06;;;;;;;17.03;15.43;;;;;;;15.19;100.00;99845.16;4965718;28;20218;-77
2021/08/06 03:08:34;;;;;;;17.07;15.40;;;;;;;15.20;100.00;99838.56;4953047;29;20238;-77
2021/08/06 03:11:02;;;;;;;16.23;14.80;;;;;;;15.20;100.00;99832.28;4948622;28;20298;-78
2021/08/06 03:13:30;;;;;;;16.80;15.07;;;;;;;15.12;100.00;99828.38;4955440;29;20583;-76
2021/08/06 03:15:56;;;;;;;17.27;15.67;;;;;;;15.15;100.00;99819.56;4946211;28;20227;-77
2021/08/06 03:18:25;;;;;;;17.07;15.47;;;;;;;15.05;100.00;99835.47;4937170;29;20293;-77
2021/08/06 03:20:55;;;;;;;16.97;15.33;;;;;;;15.04;100.00;99822.94;4969295;28;20248;-77
2021/08/06 03:23:21;;;;;;;16.40;14.90;;;;;;;15.12;100.00;99824.84;4953654;29;20187;-77
2021/08/06 03:25:51;;;;;;;16.87;15.37;;;;;;;15.10;100.00;99816.16;4937734;28;20229;-78
2021/08/06 03:28:19;;;;;;;17.43;15.77;;;;;;;15.19;100.00;99817.81;4936926;29;20653;-78
2021/08/06 03:30:45;;;;;;;17.23;15.57;;;;;;;15.05;100.00;99819.06;4953736;28;20221;-78
2021/08/06 03:33:20;;;;;;;17.13;15.53;;;;;;;14.93;100.00;99818.09;4951883;28;20184;-78
2021/08/06 03:35:45;;;;;;;16.93;15.43;;;;;;;14.78;100.00;99824.00;4962468;28;20233;-77
2021/08/06 03:38:16;;;;;;;16.77;15.30;;;;;;;14.84;100.00;99817.28;4948264;28;20175;-77
2021/08/06 03:40:43;;;;;;;17.43;15.70;;;;;;;14.98;100.00;99817.94;4965636;28;20281;-79
2021/08/06 03:43:11;;;;;;;19.20;17.17;;;;;;;15.05;100.00;99816.31;4972804;28;20190;-78
2021/08/06 03:45:44;;;;;;;18.63;16.83;;;;;;;15.09;100.00;99815.38;4954941;28;20226;-77
2021/08/06 03:48:13;;;;;;;18.33;16.57;;;;;;;15.00;100.00;99809.09;4956764;28;20268;-77
2021/08/06 03:50:39;;;;;;;18.73;17.10;;;;;;;15.05;100.00;99811.69;4966365;28;20246;-78
2021/08/06 03:53:10;;;;;;;19.83;17.83;;;;;;;15.09;100.00;99804.44;4922718;29;20665;-78
2021/08/06 03:55:44;;;;;;;19.13;17.40;;;;;;;15.13;100.00;99807.34;4953906;28;20219;-78
2021/08/06 03:58:13;;;;;;;19.63;17.63;;;;;;;15.10;100.00;99814.22;4938898;29;20262;-78
2021/08/06 04:00:39;;;;;;;18.37;16.47;;;;;;;15.13;100.00;99813.63;4953332;28;20219;-78
2021/08/06 04:03:17;;;;;;;18.60;16.90;;;;;;;15.07;100.00;99814.88;4939789;29;20225;-78
2021/08/06 04:05:43;;;;;;;16.90;15.40;;;;;;;15.17;100.00;99809.13;4922967;29;20217;-78
2021/08/06 04:08:13;;;;;;;17.60;15.97;;;;;;;15.21;100.00;99810.06;4968460;28;20289;-79
2021/08/06 04:10:45;;;;;;;17.50;15.70;;;;;;;15.18;100.00;99810.75;4955536;28;20606;-78
2021/08/06 04:13:12;;;;;;;18.43;16.73;;;;;;;15.23;100.00;99807.03;4963993;28;20406;-77
2021/08/06 04:15:38;;;;;;;18.60;16.80;;;;;;;15.27;100.00;99794.28;4947727;28;20289;-81
2021/08/06 04:18:04;;;;;;;18.13;16.47;;;;;;;15.28;100.00;99802.19;4962304;28;20211;-78
2021/08/06 04:20:30;;;;;;;16.87;15.37;;;;;;;15.18;100.00;99793.50;4934398;29;20234;-79
2021/08/06 04:22:55;;;;;;;16.80;15.27;;;;;;;15.24;100.00;99786.75;4950828;28;20191;-77
2021/08/06 04:25:25;;;;;;;17.00;15.40;;;;;;;15.45;100.00;99788.47;4950413;28;20233;-78
2021/08/06 04:27:51;;;;;;;16.87;15.23;;;;;;;15.40;100.00;99791.38;4950797;29;20701;-78
2021/08/06 04:30:17;;;;;;;16.87;15.37;;;;;;;15.41;100.00;99787.53;4949970;28;20215;-79
2021/08/06 04:32:45;;;;;;;16.80;15.30;;;;;;;15.42;100.00;99781.72;4967839;28;20183;-77
2021/08/06 04:35:14;;;;;;;16.73;15.27;;;;;;;15.49;100.00;99783.97;4935862;28;20251;-79
2021/08/06 04:37:49;;;;;;;16.67;15.17;;;;;;;15.57;100.00;99783.16;4954875;29;20187;-79
2021/08/06 04:40:18;;;;;;;16.50;15.00;;;;;;;15.65;100.00;99779.59;4951920;28;20281;-77
2021/08/06 04:42:49;;;;;;;16.67;15.17;;;;;;;15.53;100.00;99788.47;4937530;29;20227;-78
2021/08/06 04:45:18;;;;;;;17.60;15.83;;;;;;;15.66;100.00;99783.91;4951667;28;20213;-78
2021/08/06 04:47:50;;;;;;;17.33;15.73;;;;;;;15.65;100.00;99777.63;4969553;28;20215;-79
2021/08/06 04:50:18;;;;;;;16.97;15.33;;;;;;;15.77;100.00;99768.75;4954984;28;20206;-77
2021/08/06 04:52:47;;;;;;;17.57;15.97;;;;;;;15.71;100.00;99764.56;4940131;29;20190;-79
2021/08/06 04:55:18;;;;;;;16.83;15.23;;;;;;;15.82;100.00;99767.44;4971428;28;20683;-77
2021/08/06 04:57:45;;;;;;;17.83;16.03;;;;;;;15.85;100.00;99766.78;4967699;28;20176;-79
2021/08/06 05:00:14;;;;;;;16.97;15.53;;;;;;;15.79;100.00;99765.34;4941145;28;20650;-78
2021/08/06 05:02:41;;;;;;;17.87;16.17;;;;;;;15.77;100.00;99759.41;4956533;29;20191;-78
2021/08/06 05:05:09;;;;;;;17.90;16.40;;;;;;;16.07;100.00;99758.31;4956090;28;20179;-77
2021/08/06 05:07:35;;;;;;;17.97;16.37;;;;;;;15.94;100.00;99759.34;4973082;28;20250;-79
2021/08/06 05:10:06;;;;;;;19.03;17.13;;;;;;;16.06;100.00;99756.72;4974486;28;20211;-78
2021/08/06 05:12:32;;;;;;;18.30;16.60;;;;;;;16.20;100.00;99757.31;4949217;28;20227;-78
2021/08/06 05:15:00;;;;;;;18.83;16.93;;;;;;;16.13;100.00;99756.97;4972468;28;20175;-78
2021/08/06 05:17:26;;;;;;;17.77;16.20;;;;;;;16.26;100.00;99755.97;4953785;28;20266;-78
2021/08/06 05:19:52;;;;;;;18.33;16.63;;;;;;;16.15;100.00;99760.19;4950816;29;20215;-78
2021/08/06 05:22:18;;;;;;;18.97;17.10;;;;;;;16.24;100.00;99758.25;4964112;29;20294;-78
2021/08/06 05:24:46;;;;;;;19.20;17.40;;;;;;;16.23;100.00;99753.91;4942642;29;20194;-79
2021/08/06 05:27:12;;;;;;;19.02;17.23;;;;;;;16.38;100.00;99748.66;4955416;29;20656;-73
2021/08/06 05:29:39;;;;;;;19.43;17.53;;;;;;;16.45;100.00;99748.16;4957320;28;20207;-73
2021/08/06 05:32:05;;;;;;;18.57;16.80;;;;;;;16.44;100.00;99741.03;4939895;28;20235;-74
2021/08/06 05:34:34;;;;;;;19.47;17.57;;;;;;;16.42;100.00;99737.84;4980817;28;20202;-77
2021/08/06 05:36:59;;;;;;;17.73;16.13;;;;;;;16.40;100.00;99746.38;4963462;28;20220;-79
2021/08/06 05:39:28;;;;;;;18.70;16.70;;;;;;;16.41;100.00;99747.19;4973875;28;20415;-79
2021/08/06 05:41:56;;;;;;;18.03;16.33;;;;;;;16.44;100.00;99746.53;4959442;29;20219;-79
2021/08/06 05:44:27;;;;;;;17.47;15.87;;;;;;;16.38;100.00;99756.88;4958932;29;20187;-78
2021/08/06 05:46:55;;;;;;;17.53;15.93;;;;;;;16.45;100.00;99753.63;4954637;29;20223;-79
2021/08/06 05:49:20;;;;;;;17.23;15.63;;;;;;;16.34;100.00;99761.44;4921862;29;20238;-79
2021/08/06 05:51:49;;;;;;;18.30;16.60;;;;;;;16.37;100.00;99748.97;4953298;29;20234;-79
2021/08/06 05:54:15;;;;;;;17.67;16.07;;;;;;;16.56;100.00;99754.84;4972695;28;20711;-79
2021/08/06 05:56:45;;;;;;;17.75;16.05;;;;;;;16.55;100.00;99755.97;4957570;29;20297;-78
2021/08/06 05:59:11;;;;;;;17.63;16.05;;;;;;;16.87;100.00;99756.84;4939314;29;20211;-81
2021/08/06 06:01:37;;;;;;;16.90;15.30;;;;;;;16.85;100.00;99752.81;4953113;28;20223;-79
2021/08/06 06:04:28;;;;;;;17.65;16.05;;;;;;;16.99;100.00;99756.91;4957285;28;20277;-79
2021/08/06 06:07:05;;;;;;;16.25;14.75;;;;;;;17.05;100.00;99753.63;4944172;28;20256;-77
2021/08/06 06:09:34;;;;;;;16.02;14.52;;;;;;;16.99;100.00;99765.13;4974410;28;20211;-78
2021/08/06 06:12:00;;;;;;;16.17;14.68;;;;;;;17.10;100.00;99758.09;4956869;29;20226;-79
2021/08/06 06:14:26;;;;;;;15.60;14.15;;;;;;;17.12;100.00;99755.81;4956938;29;20619;-79
2021/08/06 06:16:58;;;;;;;15.65;14.25;;;;;;;17.32;100.00;99755.03;4957017;28;20682;-79
2021/08/06 06:19:26;;;;;;;13.85;12.63;;;;;;;17.41;100.00;99751.84;4958108;28;20594;-79
2021/08/06 06:21:58;;;;;;;15.30;13.88;;;;;;;17.44;100.00;99739.41;4957456;28;20739;-79
2021/08/06 06:24:24;;;;;;;14.27;12.98;;;;;;;17.44;100.00;99751.19;4967569;28;20191;-80
2021/08/06 06:26:50;;;;;;;13.50;12.30;;;;;;;17.50;100.00;99743.53;4970134;28;20622;-79
2021/08/06 06:29:17;;;;;;;13.43;12.18;;;;;;;17.55;100.00;99746.88;4927029;29;20406;-80
2021/08/06 06:31:42;;;;;;;12.57;11.43;;;;;;;17.55;100.00;99748.81;4951991;28;20230;-78
2021/08/06 06:34:15;;;;;;;11.27;10.27;;;;;;;17.94;100.00;99743.50;4941652;29;20680;-78
2021/08/06 06:36:44;;;;;;;11.70;10.70;;;;;;;17.78;100.00;99748.88;4958386;29;20285;-79
2021/08/06 06:39:10;;;;;;;11.55;10.55;;;;;;;17.83;100.00;99754.13;4957261;29;20199;-79
2021/08/06 06:41:41;;;;;;;11.13;10.13;;;;;;;17.86;100.00;99749.91;4957747;28;20665;-79
2021/08/06 06:44:20;;;;;;;11.52;10.43;;;;;;;17.92;100.00;99743.84;4944952;29;20666;-79
2021/08/06 06:46:48;;;;;;;10.55;9.63;;;;;;;18.05;100.00;99744.66;4955482;28;20234;-77
2021/08/06 06:49:14;;;;;;;10.48;9.50;;;;;;;18.13;100.00;99748.13;4963869;28;20203;-80
2021/08/06 06:51:40;;;;;;;9.68;8.88;;;;;;;18.23;100.00;99746.88;4973292;28;20253;-79
2021/08/06 06:54:06;;;;;;;9.75;8.85;;;;;;;18.43;100.00;99752.22;4964489;28;20187;-79
2021/08/06 06:56:34;;;;;;;9.57;8.63;;;;;;;18.58;100.00;99743.28;4956327;28;20231;-78
2021/08/06 06:59:00;;;;;;;9.75;8.68;;;;;;;18.58;100.00;99743.28;4943384;29;20665;-78
2021/08/06 07:01:28;;;;;;;9.48;8.48;;;;;;;18.86;100.00;99735.88;4970480;28;20222;-78
2021/08/06 07:03:54;;;;;;;9.23;8.43;;;;;;;19.01;100.00;99736.78;4939046;29;20210;-78
2021/08/06 07:06:20;;;;;;;8.55;7.72;;;;;;;19.02;100.00;99743.88;4955871;28;20246;-78
2021/08/06 07:08:49;;;;;;;8.18;7.47;;;;;;;18.97;100.00;99746.88;4942973;29;20240;-81
2021/08/06 07:11:15;;;;;;;8.70;7.80;;;;;;;18.93;100.00;99740.41;4957889;28;20275;-79
2021/08/06 07:13:41;;;;;;;7.72;7.13;;;;;;;19.08;100.00;99744.41;4959421;29;20183;-79
2021/08/06 07:16:08;;;;;;;7.82;7.13;;;;;;;19.20;100.00;99733.38;4955118;28;20217;-77
2021/08/06 07:18:34;;;;;;;7.82;7.03;;;;;;;19.39;100.00;99728.78;4939604;29;20632;-79
2021/08/06 07:21:01;;;;;;;7.65;7.05;;;;;;;19.14;100.00;99726.50;4954586;28;20223;-78
2021/08/06 07:23:34;;;;;;;7.93;7.22;;;;;;;19.41;100.00;99721.78;4954741;29;20210;-78
2021/08/06 07:26:02;;;;;;;8.13;7.32;;;;;;;19.53;100.00;99718.16;4938461;29;20250;-79
2021/08/06 07:28:31;;;;;;;7.60;6.90;;;;;;;19.58;100.00;99717.88;4956893;29;20227;-79
2021/08/06 07:30:57;;;;;;;7.35;6.75;;;;;;;19.72;100.00;99727.31;4920502;29;20223;-77
2021/08/06 07:33:27;;;;;;;8.23;7.43;;;;;;;19.73;100.00;99721.47;4952614;29;20191;-78
2021/08/06 07:35:58;;;;;;;7.63;6.93;;;;;;;19.67;100.00;99717.38;4970278;28;20245;-79
2021/08/06 07:38:24;;;;;;;7.78;7.07;;;;;;;19.63;100.00;99717.63;4970634;28;20756;-78
2021/08/06 07:40:49;;;;;;;7.22;6.53;;;;;;;19.73;100.00;99715.97;4939188;29;20234;-78
2021/08/06 07:43:15;;;;;;;7.13;6.53;;;;;;;19.90;100.00;99718.38;4960759;29;20191;-79
2021/08/06 07:45:46;;;;;;;7.15;6.53;;;;;;;19.98;100.00;99717.44;4968605;28;20250;-79
2021/08/06 07:48:15;;;;;;;6.97;6.38;;;;;;;20.37;100.00;99728.22;4941244;28;20214;-78
2021/08/06 07:50:44;;;;;;;6.82;6.22;;;;;;;20.53;100.00;99734.50;4968206;28;20225;-78
2021/08/06 07:53:10;;;;;;;7.10;6.22;;;;;;;20.54;100.00;99714.03;4956814;28;20583;-78
2021/08/06 07:55:35;;;;;;;7.03;6.38;;;;;;;20.27;100.00;99709.44;4953036;29;20274;-78
2021/08/06 07:58:01;;;;;;;6.35;5.75;;;;;;;20.43;100.00;99720.47;4924249;29;20222;-78
2021/08/06 08:00:29;;;;;;;6.68;6.07;;;;;;;20.54;100.00;99719.56;4960254;28;20231;-79
2021/08/06 08:02:57;;;;;;;5.40;5.00;;;;;;;20.85;100.00;99718.31;4937659;29;20183;-80
2021/08/06 08:05:26;;;;;;;6.22;5.65;;;;;;;21.02;100.00;99719.84;4947081;28;20653;-79
2021/08/06 08:07:57;;;;;;;5.95;5.30;;;;;;;21.03;100.00;99721.47;4956414;28;20214;-79
2021/08/06 08:10:27;;;;;;;6.28;5.72;;;;;;;21.17;100.00;99716.22;4957538;28;20222;-79
2021/08/06 08:12:53;;;;;;;5.90;5.40;;;;;;;21.23;100.00;99730.19;4956215;28;20187;-80
2021/08/06 08:15:18;;;;;;;5.90;5.40;;;;;;;21.45;100.00;99718.41;4956259;28;20194;-79
2021/08/06 08:17:44;;;;;;;5.55;5.05;;;;;;;21.44;100.00;99716.00;4956301;28;20186;-79
2021/08/06 08:20:12;;;;;;;7.28;5.30;;;;;;;21.51;100.00;99716.94;4954998;28;20198;-80
2021/08/06 08:22:38;;;;;;;5.72;5.22;;;;;;;21.33;100.00;99714.97;4955559;28;20703;-78
2021/08/06 08:25:07;;;;;;;5.38;4.88;;;;;;;21.53;100.00;99720.13;4956278;29;20203;-80
2021/08/06 08:27:35;;;;;;;4.80;4.40;;;;;;;21.74;100.00;99721.34;4940225;29;20260;-80
2021/08/06 08:30:04;;;;;;;5.32;4.68;;;;;;;21.81;100.00;99720.66;4959482;28;20286;-78
2021/08/06 08:32:30;;;;;;;5.40;4.90;;;;;;;21.78;100.00;99713.09;4974852;28;20225;-79
2021/08/06 08:34:56;;;;;;;6.43;5.40;;;;;;;21.76;100.00;99718.22;4958697;28;20187;-79
2021/08/06 08:37:25;;;;;;;5.47;4.97;;;;;;;21.86;100.00;99714.81;4959569;28;20234;-78
2021/08/06 08:39:51;;;;;;;4.43;4.13;;;;;;;21.95;100.00;99712.59;4959053;29;20704;-79
2021/08/06 08:42:17;;;;;;;5.03;4.45;;;;;;;22.09;100.00;99705.34;4942847;29;20247;-79
2021/08/06 08:44:44;;;;;;;4.78;4.25;;;;;;;22.00;100.00;99702.81;4958885;28;20686;-79
2021/08/06 08:47:10;;;;;;;6.35;4.22;;;;;;;22.03;100.00;99704.84;4940113;29;20349;-77
2021/08/06 08:49:36;;;;;;;4.03;3.63;;;;;;;22.34;100.00;99707.34;4924540;29;20207;-80
2021/08/06 08:52:05;;;;;;;3.78;3.47;;;;;;;22.56;100.00;99703.72;4958425;29;20250;-79
2021/08/06 08:54:33;;;;;;;4.80;4.40;;;;;;;22.40;100.00;99694.81;4959908;28;20277;-79
2021/08/06 08:57:00;;;;;;;4.22;3.92;;;;;;;22.47;100.00;99694.88;4939568;29;20589;-78
2021/08/06 08:59:26;;;;;;;3.75;3.25;;;;;;;22.73;100.00;99687.38;4940437;29;20228;-79
2021/08/06 09:01:52;;;;;;;3.80;3.47;;;;;;;22.66;100.00;99694.78;4931503;28;20589;-79
2021/08/06 09:04:29;;;;;;;3.20;3.00;;;;;;;22.89;100.00;99688.81;4942616;29;20194;-79
2021/08/06 09:06:56;;;;;;;2.95;2.75;;;;;;;22.99;100.00;99682.59;4970307;28;20230;-80
2021/08/06 09:09:29;;;;;;;3.95;2.90;;;;;;;22.97;100.00;99679.41;4937617;29;20266;-79
2021/08/06 09:12:07;;;;;;;3.53;3.03;;;;;;;22.84;100.00;99680.00;4954342;28;20219;-78
2021/08/06 09:14:53;;;;;;;2.92;2.72;;;;;;;22.88;100.00;99678.88;4961219;28;20199;-79
2021/08/06 09:17:18;;;;;;;3.20;3.00;;;;;;;22.96;100.00;99674.22;4979872;28;20249;-79
2021/08/06 09:19:57;;;;;;;3.00;2.80;;;;;;;22.90;100.00;99670.19;4950819;29;20234;-79
2021/08/06 09:22:38;;;;;;;2.80;2.60;;;;;;;23.34;99.14;99663.59;4932297;29;20218;-79
2021/08/06 09:25:06;;;;;;;2.70;2.50;;;;;;;23.50;100.00;99667.72;4941511;29;20187;-77
2021/08/06 09:27:37;;;;;;;3.00;2.45;;;;;;;23.17;98.83;99668.94;4972779;28;20227;-77
2021/08/06 09:30:08;;;;;;;2.95;2.47;;;;;;;23.37;97.21;99666.41;4958235;28;20235;-79
2021/08/06 09:32:48;;;;;;;2.50;2.30;;;;;;;23.44;96.73;99673.97;4971628;28;20535;-80
2021/08/06 09:35:20;;;;;;;2.47;2.28;;;;;;;23.40;99.13;99675.94;4955883;28;20274;-79
2021/08/06 09:37:48;;;;;;;2.70;2.50;;;;;;;23.29;99.42;99670.25;4973624;28;20645;-78
2021/08/06 09:40:16;;;;;;;2.58;2.38;;;;;;;23.34;100.00;99664.38;4956854;28;20256;-81
2021/08/06 09:42:58;;;;;;;2.97;2.30;;;;;;;23.18;97.84;99665.78;4938813;29;20497;-76
2021/08/06 09:45:26;;;;;;;2.75;2.55;;;;;;;23.00;100.00;99675.06;4973065;28;20673;-80
2021/08/06 09:47:57;;;;;;;3.47;2.35;;;;;;;23.46;100.00;99668.84;4924687;28;20215;-79
2021/08/06 09:50:47;;;;;;;2.83;2.05;;;;;;;23.46;96.86;99666.91;4969197;28;20246;-79
2021/08/06 09:53:13;;;;;;;2.50;2.30;;;;;;;23.65;95.38;99670.28;4939695;29;20184;-79
2021/08/06 09:55:43;;;;;;;2.25;2.05;;;;;;;23.96;90.35;99657.88;4922855;29;20255;-79
2021/08/06 09:58:14;;;;;;;2.55;2.13;;;;;;;23.72;93.97;99669.56;4941752;29;20194;-78
2021/08/06 10:00:41;;;;;;;2.55;2.35;;;;;;;23.75;89.92;99663.22;4957446;28;20227;-77
2021/08/06 10:03:27;;;;;;;2.30;1.98;;;;;;;24.26;93.78;99662.06;4971082;28;20242;-77
2021/08/06 10:06:19;;;;;;;2.42;2.30;;;;;;;24.25;88.85;99666.00;4956203;28;20277;-78
2021/08/06 10:08:46;;;;;;;2.30;2.10;;;;;;;24.33;89.25;99662.16;4935986;28;20218;-80
2021/08/06 10:11:17;;;;;;;4.20;1.90;;;;;;;24.36;89.19;99657.41;4952586;28;20222;-78
2021/08/06 10:13:48;;;;;;;2.20;2.00;;;;;;;24.43;90.10;99646.34;4966501;28;20195;-80
2021/08/06 10:16:18;;;;;;;3.25;2.10;;;;;;;24.91;88.65;99639.44;4946712;28;20220;-79
2021/08/06 10:18:44;;;;;;;2.13;1.80;;;;;;;24.58;87.64;99658.31;4949328;29;20210;-78
2021/08/06 10:21:10;;;;;;;2.40;2.10;;;;;;;24.30;85.75;99651.81;4957106;28;20215;-81
2021/08/06 10:23:35;;;;;;;2.15;1.90;;;;;;;24.69;87.58;99651.66;4940547;29;20605;-82
2021/08/06 10:26:08;;;;;;;3.13;2.00;;;;;;;24.34;88.60;99647.06;4958986;28;20229;-78
2021/08/06 10:28:34;;;;;;;1.95;1.85;;;;;;;24.44;89.09;99647.94;4923949;29;20220;-80
2021/08/06 10:31:19;;;;;;;1.83;1.65;;;;;;;24.15;89.88;99642.53;4954449;28;20294;-80
2021/08/06 10:34:07;;;;;;;2.13;2.03;;;;;;;24.50;87.07;99637.25;4957174;28;20201;-80
2021/08/06 10:36:43;;;;;;;2.60;1.80;;;;;;;24.66;88.51;99643.31;4957025;28;20231;-79
2021/08/06 10:39:36;;;;;;;2.47;1.98;;;;;;;24.68;87.47;99641.72;4937085;29;20756;-79
2021/08/06 10:42:03;;;;;;;2.08;1.67;;;;;;;24.56;89.63;99632.91;4942432;29;20219;-76
2021/08/06 10:44:49;;;;;;;2.58;1.88;;;;;;;24.49;85.99;99633.69;4956990;28;20342;-78
2021/08/06 10:47:17;;;;;;;2.42;1.90;;;;;;;24.88;83.49;99629.91;4963776;28;20231;-78
2021/08/06 10:49:43;;;;;;;2.22;2.03;;;;;;;24.83;86.61;99632.25;4979414;28;20284;-78
2021/08/06 10:52:14;;;;;;;2.53;1.90;;;;;;;24.69;82.76;99626.66;4959602;28;20294;-79
2021/08/06 10:54:39;;;;;;;3.05;2.05;;;;;;;24.45;89.23;99627.31;4964989;28;20198;-79
2021/08/06 10:57:21;;;;;;;2.47;1.67;;;;;;;24.63;88.66;99633.75;4939748;29;20218;-80
2021/08/06 10:59:47;;;;;;;2.10;1.90;;;;;;;24.83;86.39;99621.97;4954776;29;20285;-83
2021/08/06 11:02:33;;;;;;;2.13;1.83;;;;;;;24.71;85.39;99624.28;4969258;28;20223;-80
2021/08/06 11:05:04;;;;;;;2.20;2.00;;;;;;;24.72;85.00;99619.50;4955216;29;20207;-79
2021/08/06 11:07:31;;;;;;;3.15;2.00;;;;;;;24.59;84.89;99621.81;4953793;29;20777;-81
2021/08/06 11:10:03;;;;;;;1.60;1.50;;;;;;;25.16;84.64;99621.66;4941457;28;20203;-81
2021/08/06 11:12:35;;;;;;;1.98;1.77;;;;;;;25.17;81.96;99610.16;4942252;28;20231;-79
2021/08/06 11:15:05;;;;;;;2.28;1.92;;;;;;;25.33;79.96;99607.81;4955147;28;20195;-80
2021/08/06 11:17:41;;;;;;;1.80;1.70;;;;;;;25.35;69.25;99604.66;4946906;28;21981;-77
2021/08/06 11:20:10;;;;;;;1.92;1.70;;;;;;;25.31;70.90;99610.22;4958530;28;20374;-79
2021/08/06 11:22:46;;;;;;;2.13;1.67;;;;;;;25.68;67.50;99602.34;4949654;28;20187;-79
2021/08/06 11:25:16;;;;;;;2.28;1.90;;;;;;;25.48;73.58;99597.53;4952938;28;20193;-80
2021/08/06 11:27:56;;;;;;;2.60;2.17;;;;;;;25.46;69.96;99595.13;4954550;28;20295;-77
2021/08/06 11:30:26;;;;;;;2.25;1.80;;;;;;;25.21;72.90;99585.94;4948231;28;20254;-80